CDT,Max TemperatureF,Mean TemperatureF,Min TemperatureF,Max Dew PointF,MeanDew PointF,Min DewpointF,Max Humidity, Mean Humidity, Min Humidity, Max Sea Level PressureIn, Mean Sea Level PressureIn, Min Sea Level PressureIn, Max VisibilityMiles, Mean VisibilityMiles, Min VisibilityMiles, Max Wind SpeedMPH, Mean Wind SpeedMPH, Max Gust SpeedMPH,PrecipitationIn, CloudCover, Events, WindDirDegrees
2013-9-1,91,85,79,76,74,72,84,69,55,29.93,29.88,29.85,10,10,10,14,9,,0.00,2,,184
2013-9-2,91,86,82,76,75,68,79,67,52,29.97,29.91,29.86,10,10,10,13,9,18,0.00,1,Thunderstorm,181
2013-9-3,91,83,75,77,75,73,94,73,55,30.00,29.94,29.90,10,10,10,13,7,,0.00,0,,189
2013-9-4,93,85,77,76,74,69,94,72,50,30.04,29.98,29.93,10,10,10,14,6,,0.00,1,,154
2013-9-5,91,83,75,76,74,72,94,77,59,30.07,30.03,29.99,10,10,4,17,7,22,0.02,2,Rain-Thunderstorm,83
2013-9-6,91,82,75,76,74,73,94,76,59,30.06,30.00,29.96,10,10,10,17,6,22,0.00,1,,77
2013-9-7,91,82,75,76,74,72,94,80,61,30.01,29.97,29.94,10,10,10,15,6,22,0.00,1,Thunderstorm,77
2013-9-8,88,82,75,77,74,71,94,86,61,29.98,29.93,29.90,10,8,1,16,7,125,0.46,3,Rain-Thunderstorm,83
2013-9-9,88,80,73,76,73,71,94,85,62,29.98,29.94,29.91,10,8,2,22,8,59,0.45,3,Rain-Thunderstorm,102
2013-9-10,90,81,73,76,74,72,94,81,57,30.04,29.99,29.95,10,10,6,18,7,25,0.02,1,Rain,85
2013-9-11,90,81,73,75,74,71,94,81,63,30.06,30.02,29.99,10,9,6,16,8,26,0.01,2,Rain,70
2013-9-12,91,82,73,75,72,68,97,77,47,30.02,29.97,29.90,10,8,5,16,7,18,0.00,1,,57
2013-9-13,91,82,73,74,72,70,93,77,50,29.93,29.88,29.82,10,9,7,17,7,21,0.00,0,,57
2013-9-14,91,82,72,75,72,67,97,74,45,29.91,29.87,29.83,10,9,6,17,7,25,0.00,1,,77
2013-9-15,91,82,75,76,74,72,94,78,57,29.97,29.93,29.88,10,9,2,18,9,25,0.02,2,Rain,75
2013-9-16,91,84,77,77,75,74,90,78,57,30.00,29.97,29.93,10,10,3,21,12,29,0.11,1,Rain,85
2013-9-17,89,82,75,76,75,73,94,80,63,30.02,29.97,29.93,10,9,6,18,8,24,0.00,1,,77
2013-9-18,91,82,73,77,74,72,97,78,55,29.99,29.94,29.89,10,9,7,17,8,24,0.00,0,,78
2013-9-19,91,82,75,78,76,74,97,79,63,29.93,29.88,29.83,10,10,9,20,9,24,0.01,2,Rain,109
2013-9-20,87,82,77,79,77,73,94,85,74,29.86,29.78,29.72,10,8,2,39,13,115,0.46,5,Rain-Thunderstorm,167
2013-9-21,79,74,71,76,72,68,100,89,71,29.83,29.76,29.73,10,7,1,24,13,29,2.28,8,Rain-Thunderstorm,16
2013-9-22,86,76,68,68,65,60,93,69,43,29.82,29.78,29.73,10,10,9,16,9,21,0.00,3,,21
2013-9-23,88,79,71,74,68,64,94,79,59,29.80,29.76,29.72,10,9,2,12,9,,0.03,7,Rain,19
2013-9-24,93,84,75,77,72,66,94,76,40,29.86,29.81,29.78,10,9,6,16,8,,0.00,3,,351
2013-9-25,91,80,71,77,72,63,100,83,42,29.88,29.84,29.79,10,5,0,13,2,,0.00,2,Fog,202
2013-9-26,89,82,75,76,74,70,87,76,61,29.90,29.86,29.82,10,10,10,16,8,,0.00,1,,145
2013-9-27,90,84,80,81,77,75,94,84,69,29.93,29.89,29.86,10,9,2,15,9,30,0.33,4,Rain-Thunderstorm,142
2013-9-28,89,84,80,79,78,76,94,83,67,29.97,29.92,29.88,10,10,8,16,12,58,0.04,3,Rain-Thunderstorm,148
2013-9-29,88,82,75,79,74,70,97,84,55,29.99,29.94,29.88,10,8,0,20,7,26,1.68,6,Rain-Thunderstorm,169
2013-9-30,87,80,73,75,73,71,94,86,63,29.91,29.87,29.82,10,8,5,12,5,,0.00,4,,344